Shreveport, LA (71138)

1:59 AM CST on December 11, 2016 (GMT -0600)
The Colony | | Change Station

Elev 187 ft 32.59 °N, 93.73 °W | Updated 6 seconds ago

Overcast
Overcast
49.5 °F
Feels Like 49 °F
N
3.5
Wind Variable Wind from NNE
Gusts 3.5 mph

Today
High -- | Low -- °F
--% Chance of Precip.
Yesterday
High -- | Low -- °F
Precip. -- in
Pressure 30.20 in
Visibility 10.0 miles
Clouds Overcast 4100 ft
Windchill 49 °F
Dew Point 2 °F
Humidity 14%
Rainfall 0.00 in
Snow Depth Not available.
7:07 AM 5:10 PM
Waxing Gibbous, 90% visible
METAR KDTN 110753Z AUTO 17011KT 10SM OVC041 09/M02 A3020 RMK AO2 SLP226 T00941022
Pressure 30.20 in
Visibility 10.0 miles
Clouds Overcast 4100 ft
Windchill 49 °F
Dew Point 2 °F
Humidity 14%
Rainfall 0.00 in
Snow Depth Not available.
7:07 AM 5:10 PM
Waxing Gibbous, 90% visible
METAR KDTN 110753Z AUTO 17011KT 10SM OVC041 09/M02 A3020 RMK AO2 SLP226 T00941022

10-Day Weather Forecast

Almanac

Astronomy

Dec. 11, 2016 Rise Set
Actual Time
Civil Twilight
Nautical Twilight
Astronomical Twilight
Moon
Length of Visible Light
Length of Day
Tomorrow will be .
, % of the Moon is Illuminated

Today's Extremes

State Highs State Lows

Community

WunderPhotos

Upload Photos

1,956,707 photos uploaded!

WunderBlog® & News

Nearby

Air Quality

  Air Quality AQ Index Pollutant
Not available.

Snow Depth

Station Depth Elevation

Earthquake Activity

City Distance Mag. Time & Date
Minimum magnitude displayed is 2.5.

Coastal Water Temperatures

Place Temperature

Stations

Nearby Weather Stations

Station Location Temp. Windchill Dew Point Humidity Wind Precip. Elev Updated Type
                   

Watches & Warnings

There are currently no watches in effect.